Аэропорт: Брест-2. Брест

ICAO: UMBB

METAR:
2021-01-19 12:00:00
UMBB 191200Z 12003MPS 2200 BR NSC M11/M12 Q1016 R29/720242 NOSIG
METAR:
2021-01-19 11:02:00
TAF UMBB 191102Z 1912/1921 13003MPS 4000 BR NSC TEMPO 1912/1915 2100 BR TEMPO 1915/1921 15005MPS 2100 -SN BR BKN012